Time;durP1;ratioP1;P1;durP2;ratioP2;P2;SDS_P1;SDS_P2;PMS_P1;PMS_P2;Temp;Humidity;BMP_temperature;BMP_pressure;BME280_temperature;BME280_humidity;BME280_pressure;Samples;Min_cycle;Max_cycle;Signal;HPM_P1;HPM_P2
2021/09/21 00:01:47;;;;;;;14.18;7.20;;;11.60;99.90;;;;;;5047555;28;20373;-71
2021/09/21 00:04:14;;;;;;;12.13;6.80;;;11.30;99.90;;;;;;5044862;28;20102;-72
2021/09/21 00:06:41;;;;;;;13.43;7.20;;;11.50;99.90;;;;;;5036154;28;20515;-71
2021/09/21 00:09:08;;;;;;;10.95;6.95;;;11.50;99.90;;;;;;5041089;28;20102;-71
2021/09/21 00:11:37;;;;;;;13.20;7.00;;;11.50;99.90;;;;;;5042812;28;20048;-71
2021/09/21 00:14:04;;;;;;;13.13;6.38;;;11.40;99.90;;;;;;5039549;28;20056;-71
2021/09/21 00:16:31;;;;;;;15.23;7.40;;;11.50;99.90;;;;;;5040018;28;20479;-71
2021/09/21 00:18:58;;;;;;;10.07;6.38;;;11.50;99.90;;;;;;5041387;28;20330;-72
2021/09/21 00:21:25;;;;;;;14.82;7.68;;;11.50;99.90;;;;;;5039471;28;20048;-72
2021/09/21 00:23:52;;;;;;;12.23;7.65;;;11.50;99.90;;;;;;5040592;28;20045;-71
2021/09/21 00:26:20;;;;;;;12.02;6.90;;;11.40;99.90;;;;;;5040816;28;20049;-71
2021/09/21 00:28:48;;;;;;;12.40;6.78;;;11.40;99.90;;;;;;5040511;28;20073;-70
2021/09/21 00:31:17;;;;;;;10.50;6.72;;;11.30;99.90;;;;;;5040158;28;20127;-70
2021/09/21 00:33:49;;;;;;;11.00;7.45;;;11.30;99.90;;;;;;5037947;28;20052;-71
2021/09/21 00:36:17;;;;;;;11.85;6.82;;;11.40;99.90;;;;;;5036789;28;20063;-70
2021/09/21 00:38:44;;;;;;;14.57;6.80;;;11.40;99.90;;;;;;5038813;28;20110;-70
2021/09/21 00:41:12;;;;;;;10.07;6.50;;;11.30;99.90;;;;;;5036566;28;21227;-71
2021/09/21 00:43:40;;;;;;;10.40;6.57;;;11.30;99.90;;;;;;5041320;28;20497;-71
2021/09/21 00:46:08;;;;;;;11.95;7.07;;;11.30;99.90;;;;;;5042220;28;20075;-72
2021/09/21 00:48:35;;;;;;;10.20;6.75;;;11.40;99.90;;;;;;5044554;28;20714;-71
2021/09/21 00:51:02;;;;;;;16.63;6.72;;;11.40;99.90;;;;;;5046681;28;20052;-71
2021/09/21 00:53:30;;;;;;;13.57;7.28;;;11.40;99.90;;;;;;5046823;28;20040;-72
2021/09/21 00:55:57;;;;;;;13.27;7.05;;;11.40;99.90;;;;;;5046104;28;20048;-71
2021/09/21 00:58:24;;;;;;;13.35;7.63;;;11.30;99.90;;;;;;5046134;28;20056;-71
2021/09/21 01:00:51;;;;;;;9.52;6.38;;;11.30;99.90;;;;;;5047656;28;20133;-71
2021/09/21 01:03:19;;;;;;;9.85;6.28;;;11.30;99.90;;;;;;5045572;28;20048;-71
2021/09/21 01:05:47;;;;;;;11.60;6.35;;;11.30;99.90;;;;;;5046175;28;20052;-72
2021/09/21 01:08:14;;;;;;;11.57;6.85;;;11.40;99.90;;;;;;5044520;28;20379;-71
2021/09/21 01:10:41;;;;;;;13.85;7.05;;;11.30;99.90;;;;;;5046974;28;20126;-72
2021/09/21 01:13:08;;;;;;;10.35;6.38;;;11.30;99.90;;;;;;5046550;28;20076;-71
2021/09/21 01:15:36;;;;;;;12.23;6.28;;;11.10;99.90;;;;;;5045244;28;20075;-71
2021/09/21 01:18:03;;;;;;;11.90;6.40;;;11.30;99.90;;;;;;5045403;28;20056;-71
2021/09/21 01:20:31;;;;;;;15.13;7.03;;;11.30;99.90;;;;;;5045339;28;20044;-71
2021/09/21 01:23:03;;;;;;;9.77;5.95;;;11.20;99.90;;;;;;5045917;28;20583;-72
2021/09/21 01:25:30;;;;;;;11.90;6.30;;;11.10;99.90;;;;;;5044036;28;20044;-72
2021/09/21 01:27:57;;;;;;;12.52;6.68;;;11.10;99.90;;;;;;5043005;28;20076;-70
2021/09/21 01:30:24;;;;;;;9.68;6.40;;;11.00;99.90;;;;;;5042174;28;20045;-71
2021/09/21 01:32:51;;;;;;;11.48;6.00;;;11.00;99.90;;;;;;5035241;28;20135;-71
2021/09/21 01:35:18;;;;;;;13.20;6.38;;;11.10;99.90;;;;;;5033355;28;20076;-71
2021/09/21 01:37:51;;;;;;;12.10;6.93;;;11.00;99.90;;;;;;5037140;28;20072;-71
2021/09/21 01:40:20;;;;;;;10.35;6.43;;;10.90;99.90;;;;;;5035464;28;20051;-72
2021/09/21 01:42:49;;;;;;;11.80;6.60;;;10.90;99.90;;;;;;5035965;28;20512;-72
2021/09/21 01:45:18;;;;;;;9.80;6.05;;;10.90;99.90;;;;;;5033847;28;20230;-72
2021/09/21 01:47:48;;;;;;;11.52;6.25;;;10.90;99.90;;;;;;5036047;28;20078;-72
2021/09/21 01:53:18;;;;;;;13.02;6.53;;;11.00;99.90;;;;;;4999627;28;20326;-72
2021/09/21 01:58:50;;;;;;;12.27;6.32;;;11.00;99.90;;;;;;5034923;28;20531;-72
2021/09/21 02:01:18;;;;;;;10.32;5.85;;;11.00;99.90;;;;;;5036087;28;20547;-72
2021/09/21 02:03:46;;;;;;;10.40;5.85;;;11.10;99.90;;;;;;5036299;28;20059;-72
2021/09/21 02:06:13;;;;;;;10.07;5.78;;;11.10;99.90;;;;;;5034808;28;20048;-72
2021/09/21 02:08:40;;;;;;;12.85;6.65;;;11.10;99.90;;;;;;5037363;28;20048;-72
2021/09/21 02:11:09;;;;;;;11.60;6.13;;;11.10;99.90;;;;;;5036222;28;20080;-72
2021/09/21 02:13:36;;;;;;;9.60;5.68;;;11.10;99.90;;;;;;5036043;28;20165;-72
2021/09/21 02:16:04;;;;;;;10.88;5.47;;;11.00;99.90;;;;;;5037734;28;20110;-72
2021/09/21 02:18:31;;;;;;;8.90;5.53;;;11.10;99.90;;;;;;5042260;28;20161;-73
2021/09/21 02:20:58;;;;;;;11.35;6.28;;;11.20;99.90;;;;;;5043644;28;20124;-74
2021/09/21 02:23:25;;;;;;;11.52;6.20;;;11.10;99.90;;;;;;5042304;28;20044;-72
2021/09/21 02:25:52;;;;;;;10.18;5.78;;;11.00;99.90;;;;;;5042011;28;20145;-72
2021/09/21 02:28:21;;;;;;;9.15;5.60;;;11.00;99.90;;;;;;5041455;28;20052;-72
2021/09/21 02:30:48;;;;;;;10.13;5.90;;;11.10;99.90;;;;;;5043964;28;20568;-73
2021/09/21 02:33:15;;;;;;;7.70;5.15;;;11.00;99.90;;;;;;5042868;28;20461;-73
2021/09/21 02:35:45;;;;;;;9.50;5.43;;;11.00;99.90;;;;;;5041456;28;20072;-73
2021/09/21 02:38:12;;;;;;;10.25;6.13;;;11.10;99.90;;;;;;5042799;28;20056;-73
2021/09/21 02:40:39;;;;;;;15.05;6.50;;;11.10;99.90;;;;;;5040790;28;20079;-73
2021/09/21 02:43:06;;;;;;;10.18;5.57;;;11.10;99.90;;;;;;5041986;28;20497;-73
2021/09/21 02:45:34;;;;;;;11.13;5.80;;;10.90;99.90;;;;;;5035360;28;20126;-73
2021/09/21 02:48:01;;;;;;;10.35;5.80;;;11.00;99.90;;;;;;5036273;28;20080;-73
2021/09/21 02:50:28;;;;;;;13.02;6.13;;;11.00;99.90;;;;;;5034938;28;20056;-74
2021/09/21 02:52:55;;;;;;;10.70;5.47;;;11.00;99.90;;;;;;5037258;28;20102;-73
2021/09/21 02:55:22;;;;;;;9.52;5.78;;;11.00;99.90;;;;;;5035796;28;20496;-72
2021/09/21 02:57:50;;;;;;;10.80;4.97;;;10.90;99.90;;;;;;5035166;28;20106;-71
2021/09/21 03:00:22;;;;;;;10.27;5.65;;;11.10;99.90;;;;;;5035478;28;20083;-73
2021/09/21 03:02:50;;;;;;;10.57;5.40;;;11.00;99.90;;;;;;5036305;28;20570;-72
2021/09/21 03:05:20;;;;;;;9.32;5.60;;;11.10;99.90;;;;;;5033939;28;20052;-73
2021/09/21 03:07:50;;;;;;;10.63;5.57;;;11.20;99.90;;;;;;5036015;28;20045;-72
2021/09/21 03:13:21;;;;;;;9.13;5.80;;;11.10;99.90;;;;;;5035866;28;20048;-72
2021/09/21 03:18:35;;;;;;;9.52;5.43;;;11.10;99.90;;;;;;5036243;28;20055;-73
2021/09/21 03:21:02;;;;;;;11.02;5.47;;;11.10;99.90;;;;;;5035252;28;20080;-73
2021/09/21 03:23:29;;;;;;;9.80;5.65;;;11.00;99.90;;;;;;5035495;28;20095;-73
2021/09/21 03:25:56;;;;;;;9.27;5.05;;;10.90;99.90;;;;;;5035405;28;20105;-73
2021/09/21 03:28:23;;;;;;;11.25;5.90;;;11.00;99.90;;;;;;5039719;28;20068;-73
2021/09/21 03:30:50;;;;;;;9.00;5.45;;;11.00;99.90;;;;;;5041216;28;20056;-73
2021/09/21 03:33:18;;;;;;;9.73;5.05;;;11.10;99.90;;;;;;5042597;28;20048;-73
2021/09/21 03:35:46;;;;;;;12.15;5.38;;;11.00;99.90;;;;;;5042440;28;20401;-73
2021/09/21 03:38:13;;;;;;;11.93;5.32;;;11.10;99.90;;;;;;5042094;28;20493;-73
2021/09/21 03:40:40;;;;;;;10.23;5.38;;;11.00;99.90;;;;;;5042147;28;20481;-73
2021/09/21 03:43:08;;;;;;;9.77;5.40;;;11.10;99.90;;;;;;5040366;28;20485;-73
2021/09/21 03:45:35;;;;;;;9.65;4.53;;;11.00;99.90;;;;;;5040050;28;20048;-73
2021/09/21 03:48:02;;;;;;;10.55;6.05;;;11.00;99.90;;;;;;5041126;28;20041;-73
2021/09/21 03:50:29;;;;;;;9.88;4.93;;;11.00;99.90;;;;;;5039512;28;20463;-73
2021/09/21 03:52:57;;;;;;;9.68;5.25;;;11.00;99.90;;;;;;5040659;28;20052;-73
2021/09/21 03:55:24;;;;;;;10.00;5.13;;;11.00;99.90;;;;;;5038564;28;20083;-73
2021/09/21 03:57:51;;;;;;;9.82;5.63;;;11.00;99.90;;;;;;5040087;28;20064;-72
2021/09/21 04:00:19;;;;;;;10.38;5.40;;;11.00;99.90;;;;;;5040599;28;20088;-73
2021/09/21 04:02:46;;;;;;;9.93;5.82;;;11.00;99.90;;;;;;5038854;28;20057;-73
2021/09/21 04:05:13;;;;;;;9.27;5.25;;;11.10;99.90;;;;;;5041369;28;20412;-73
2021/09/21 04:07:40;;;;;;;11.70;5.53;;;11.00;99.90;;;;;;5040817;28;20102;-73
2021/09/21 04:10:10;;;;;;;8.73;5.15;;;11.00;99.90;;;;;;5038163;28;20137;-73
2021/09/21 04:12:37;;;;;;;10.00;5.68;;;11.00;99.90;;;;;;5041248;28;20101;-73
2021/09/21 04:15:05;;;;;;;11.50;6.05;;;11.10;99.90;;;;;;5044606;28;20060;-73
2021/09/21 04:17:32;;;;;;;11.18;5.60;;;11.00;99.90;;;;;;5045494;28;20098;-72
2021/09/21 04:19:59;;;;;;;9.60;5.15;;;11.00;99.90;;;;;;5044647;28;20044;-73
2021/09/21 04:22:27;;;;;;;10.18;5.78;;;11.00;99.90;;;;;;5046547;28;20060;-74
2021/09/21 04:24:54;;;;;;;9.02;5.32;;;10.90;99.90;;;;;;5046739;28;20455;-74
2021/09/21 04:27:23;;;;;;;10.90;5.90;;;10.90;99.90;;;;;;5044728;28;20049;-74
2021/09/21 04:29:53;;;;;;;9.82;5.90;;;10.90;99.90;;;;;;5045367;28;20078;-74
2021/09/21 04:32:21;;;;;;;10.88;5.65;;;10.90;99.90;;;;;;5046565;28;20054;-73
2021/09/21 04:34:49;;;;;;;9.23;5.25;;;10.90;99.90;;;;;;5045006;28;20053;-73
2021/09/21 04:37:16;;;;;;;10.43;5.68;;;10.90;99.90;;;;;;5045667;28;20040;-72
2021/09/21 04:39:43;;;;;;;12.40;6.00;;;11.00;99.90;;;;;;5045488;28;20215;-73
2021/09/21 04:42:10;;;;;;;15.38;5.65;;;10.90;99.90;;;;;;5044578;28;20133;-73
2021/09/21 04:44:39;;;;;;;9.45;5.70;;;10.90;99.90;;;;;;5044384;28;20044;-73
2021/09/21 04:47:07;;;;;;;11.95;6.57;;;10.90;99.90;;;;;;5033609;28;20648;-73
2021/09/21 04:49:34;;;;;;;11.38;6.65;;;10.90;99.90;;;;;;5041443;28;20045;-73
2021/09/21 04:52:02;;;;;;;12.88;5.80;;;10.90;99.90;;;;;;5040146;28;20143;-72
2021/09/21 04:54:28;;;;;;;11.93;6.20;;;10.90;99.90;;;;;;5041001;28;20044;-72
2021/09/21 04:56:56;;;;;;;12.07;6.63;;;10.90;99.90;;;;;;5039322;28;20109;-73
2021/09/21 04:59:23;;;;;;;13.65;6.93;;;10.90;99.90;;;;;;5038109;28;20049;-72
2021/09/21 05:01:51;;;;;;;12.25;7.13;;;10.90;99.90;;;;;;5046688;28;20056;-73
2021/09/21 05:04:18;;;;;;;11.38;6.72;;;10.90;99.90;;;;;;5039335;28;20126;-73
2021/09/21 05:06:45;;;;;;;11.75;6.60;;;10.90;99.90;;;;;;5042382;28;20048;-73
2021/09/21 05:09:15;;;;;;;11.15;6.10;;;10.90;99.90;;;;;;5041099;28;20049;-74
2021/09/21 05:11:49;;;;;;;10.50;6.55;;;11.00;99.90;;;;;;5041370;28;20515;-76
2021/09/21 05:14:47;;;;;;;10.82;6.78;;;10.90;99.90;;;;;;5042467;28;20051;-76
2021/09/21 05:17:25;;;;;;;13.32;6.93;;;10.90;99.90;;;;;;5052883;28;20056;-76
2021/09/21 05:19:52;;;;;;;12.80;6.95;;;10.90;99.90;;;;;;5040372;28;20589;-76
2021/09/21 05:22:19;;;;;;;12.35;6.45;;;10.80;99.90;;;;;;5046809;28;20041;-78
2021/09/21 05:24:46;;;;;;;15.85;6.95;;;10.90;99.90;;;;;;5044272;28;20100;-75
2021/09/21 05:27:13;;;;;;;13.05;6.78;;;11.00;99.90;;;;;;5038396;28;20471;-79
2021/09/21 05:29:40;;;;;;;11.00;7.05;;;11.10;99.90;;;;;;5045408;28;20118;-76
2021/09/21 05:32:07;;;;;;;11.80;6.55;;;11.10;99.90;;;;;;5047014;28;20036;-75
2021/09/21 05:34:36;;;;;;;11.43;6.55;;;11.00;99.90;;;;;;5047818;28;20493;-75
2021/09/21 05:37:03;;;;;;;15.45;7.28;;;11.10;99.90;;;;;;5044122;28;20084;-75
2021/09/21 05:39:30;;;;;;;12.73;6.88;;;11.00;99.90;;;;;;5046412;28;20968;-75
2021/09/21 05:41:57;;;;;;;16.10;7.55;;;11.00;99.90;;;;;;5046077;28;20544;-75
2021/09/21 05:44:24;;;;;;;13.95;6.80;;;11.20;99.90;;;;;;5049909;28;20049;-75
2021/09/21 05:46:52;;;;;;;13.38;7.18;;;11.20;99.90;;;;;;5046859;28;20048;-75
2021/09/21 05:49:19;;;;;;;13.75;7.60;;;11.20;99.90;;;;;;5036690;28;20675;-75
2021/09/21 05:51:50;;;;;;;13.27;7.47;;;11.20;99.90;;;;;;5040109;28;20053;-75
2021/09/21 05:54:17;;;;;;;20.35;8.07;;;11.30;99.90;;;;;;5041922;28;20048;-75
2021/09/21 05:56:44;;;;;;;16.10;8.23;;;11.30;99.90;;;;;;5037792;28;20130;-75
2021/09/21 05:59:11;;;;;;;14.60;7.72;;;11.30;99.90;;;;;;5034604;28;20055;-74
2021/09/21 06:01:38;;;;;;;12.43;7.32;;;11.30;99.90;;;;;;5038370;28;20125;-74
2021/09/21 06:04:05;;;;;;;11.43;7.45;;;11.30;99.90;;;;;;5043363;28;20088;-73
2021/09/21 06:06:32;;;;;;;13.02;6.93;;;11.30;99.90;;;;;;5040031;28;20465;-74
2021/09/21 06:09:00;;;;;;;12.80;6.63;;;11.40;99.90;;;;;;5042624;28;20052;-74
2021/09/21 06:11:33;;;;;;;15.68;7.35;;;11.40;99.90;;;;;;5042703;28;20044;-74
2021/09/21 06:14:01;;;;;;;10.77;7.13;;;11.40;99.90;;;;;;5041599;28;20140;-73
2021/09/21 06:16:28;;;;;;;12.50;7.28;;;11.40;99.90;;;;;;5042920;28;20059;-74
2021/09/21 06:18:56;;;;;;;14.38;6.88;;;11.40;99.90;;;;;;5041891;28;20095;-74
2021/09/21 06:21:23;;;;;;;13.73;7.20;;;11.50;99.90;;;;;;5041309;28;20427;-74
2021/09/21 06:23:50;;;;;;;11.45;7.25;;;11.50;99.90;;;;;;5040398;28;20057;-74
2021/09/21 06:26:19;;;;;;;14.70;6.80;;;11.50;99.90;;;;;;5040774;28;20076;-74
2021/09/21 06:28:46;;;;;;;12.63;7.20;;;11.50;99.90;;;;;;5039940;28;20053;-75
2021/09/21 06:31:13;;;;;;;11.90;6.85;;;11.50;99.90;;;;;;5042034;28;20095;-74
2021/09/21 06:33:40;;;;;;;21.65;7.53;;;11.60;99.90;;;;;;5042119;28;20076;-74
2021/09/21 06:36:08;;;;;;;13.43;7.22;;;11.80;99.90;;;;;;5039611;28;20151;-74
2021/09/21 06:38:38;;;;;;;14.77;6.65;;;11.80;99.90;;;;;;5037185;28;20536;-72
2021/09/21 06:41:05;;;;;;;13.43;6.45;;;11.90;99.90;;;;;;5037703;28;20059;-73
2021/09/21 06:43:34;;;;;;;12.50;7.20;;;12.00;99.90;;;;;;5034844;28;20161;-72
2021/09/21 06:46:01;;;;;;;14.13;6.65;;;12.00;99.90;;;;;;5033253;28;20049;-73
2021/09/21 06:48:28;;;;;;;15.68;7.22;;;12.00;99.90;;;;;;5036528;28;20516;-73
2021/09/21 06:50:55;;;;;;;11.52;6.80;;;12.00;99.90;;;;;;5034744;28;20040;-72
2021/09/21 06:53:22;;;;;;;10.57;6.05;;;12.00;99.90;;;;;;5036088;28;20133;-73
2021/09/21 06:55:49;;;;;;;11.57;6.75;;;12.10;99.90;;;;;;5036275;28;20131;-73
2021/09/21 06:58:16;;;;;;;12.60;7.32;;;12.10;99.90;;;;;;5033977;28;20056;-73
2021/09/21 07:00:46;;;;;;;10.50;6.72;;;12.40;99.90;;;;;;5037915;28;20767;-74
2021/09/21 07:03:13;;;;;;;10.50;6.20;;;12.50;99.90;;;;;;5036542;28;20584;-73
2021/09/21 07:05:40;;;;;;;10.43;6.57;;;12.60;99.90;;;;;;5036999;28;20051;-74
2021/09/21 07:08:07;;;;;;;14.18;6.50;;;12.60;99.90;;;;;;5038869;28;20097;-74
2021/09/21 07:10:35;;;;;;;11.80;6.63;;;12.70;99.90;;;;;;5041862;28;20091;-74
2021/09/21 07:13:02;;;;;;;13.02;6.47;;;12.70;99.90;;;;;;5042365;28;20048;-74
2021/09/21 07:15:29;;;;;;;10.98;7.43;;;12.70;99.90;;;;;;5040245;28;20084;-74
2021/09/21 07:17:57;;;;;;;13.85;7.25;;;12.70;99.90;;;;;;5041458;28;20122;-74
2021/09/21 07:20:25;;;;;;;12.45;6.57;;;12.90;99.90;;;;;;5038876;28;20080;-75
2021/09/21 07:22:53;;;;;;;10.20;6.43;;;12.70;99.90;;;;;;5041379;28;20044;-74
2021/09/21 07:25:21;;;;;;;11.55;6.40;;;12.80;99.90;;;;;;5039646;28;20557;-74
2021/09/21 07:27:48;;;;;;;10.95;7.28;;;12.90;99.90;;;;;;5038958;28;20053;-74
2021/09/21 07:30:17;;;;;;;12.80;7.60;;;12.80;99.90;;;;;;5035191;28;20192;-74
2021/09/21 07:32:44;;;;;;;10.30;6.57;;;12.90;99.90;;;;;;5036683;28;20830;-74
2021/09/21 07:35:13;;;;;;;11.57;6.43;;;12.80;99.90;;;;;;5034247;28;20606;-74
2021/09/21 07:37:40;;;;;;;11.95;6.60;;;13.00;99.90;;;;;;5033551;28;20044;-75
2021/09/21 07:40:09;;;;;;;12.40;7.30;;;13.00;99.90;;;;;;5033453;28;20060;-74
2021/09/21 07:42:36;;;;;;;14.00;6.68;;;13.20;99.90;;;;;;5033248;28;20083;-74
2021/09/21 07:45:04;;;;;;;16.30;7.22;;;13.30;99.90;;;;;;5035678;28;20065;-74
2021/09/21 07:47:31;;;;;;;12.00;6.97;;;13.50;99.90;;;;;;5038927;28;20078;-73
2021/09/21 07:49:59;;;;;;;13.07;6.32;;;13.60;99.90;;;;;;5039848;28;20084;-74
2021/09/21 07:52:28;;;;;;;10.88;6.47;;;13.60;99.90;;;;;;5038416;28;20120;-74
2021/09/21 07:54:55;;;;;;;12.65;7.22;;;13.60;99.90;;;;;;5038122;28;20080;-74
2021/09/21 07:57:22;;;;;;;12.57;6.65;;;13.60;99.90;;;;;;5037384;28;20049;-74
2021/09/21 07:59:49;;;;;;;11.30;6.18;;;13.90;99.90;;;;;;5039917;28;20130;-74
2021/09/21 08:02:16;;;;;;;12.52;6.50;;;14.30;99.90;;;;;;5037953;28;20054;-74
2021/09/21 08:04:43;;;;;;;12.45;7.00;;;14.70;99.90;;;;;;5039049;28;20052;-74
2021/09/21 08:07:11;;;;;;;13.57;6.80;;;15.00;99.90;;;;;;5036815;28;20157;-74
2021/09/21 08:09:40;;;;;;;12.68;6.95;;;15.20;99.90;;;;;;5037812;28;20048;-74
2021/09/21 08:12:07;;;;;;;11.05;6.15;;;15.50;99.90;;;;;;5037952;28;20060;-74
2021/09/21 08:14:36;;;;;;;11.30;6.10;;;16.40;99.90;;;;;;5038670;28;20349;-74
2021/09/21 08:17:05;;;;;;;12.82;6.82;;;16.90;99.90;;;;;;5037923;28;20957;-74
2021/09/21 08:19:32;;;;;;;12.30;6.93;;;16.90;99.90;;;;;;5037850;28;20086;-74
2021/09/21 08:21:59;;;;;;;10.48;6.47;;;17.10;99.90;;;;;;5038196;28;20517;-74
2021/09/21 08:24:26;;;;;;;11.60;6.75;;;17.60;99.90;;;;;;5041470;28;20459;-73
2021/09/21 08:26:55;;;;;;;12.40;6.68;;;17.50;99.90;;;;;;5037470;28;20045;-74
2021/09/21 08:29:22;;;;;;;9.70;6.32;;;17.00;99.90;;;;;;5040919;28;20048;-73
2021/09/21 08:31:49;;;;;;;11.00;6.20;;;17.10;99.90;;;;;;5041087;28;20048;-74
2021/09/21 08:34:16;;;;;;;10.98;6.70;;;16.90;99.90;;;;;;5043542;28;20544;-74
2021/09/21 08:36:43;;;;;;;15.52;7.57;;;16.70;99.90;;;;;;5041435;28;20559;-74
2021/09/21 08:39:10;;;;;;;13.02;6.57;;;17.00;99.90;;;;;;5041379;28;20048;-74
2021/09/21 08:41:37;;;;;;;15.10;7.15;;;17.30;99.90;;;;;;5043218;28;20048;-74
2021/09/21 08:44:06;;;;;;;12.68;6.18;;;17.70;99.90;;;;;;5039552;28;20052;-74
2021/09/21 08:46:33;;;;;;;13.70;6.43;;;18.00;99.90;;;;;;5038647;28;20575;-74
2021/09/21 08:49:00;;;;;;;11.00;6.57;;;17.70;99.90;;;;;;5040001;28;20075;-73
2021/09/21 08:51:27;;;;;;;14.45;6.28;;;17.60;99.90;;;;;;5041170;28;20096;-74
2021/09/21 08:53:54;;;;;;;11.18;6.22;;;17.80;99.90;;;;;;5041705;28;20079;-74
2021/09/21 08:56:21;;;;;;;10.10;6.60;;;18.20;99.90;;;;;;5040742;28;20110;-74
2021/09/21 08:58:59;;;;;;;12.45;6.38;;;18.40;99.90;;;;;;5041290;28;21408;-73
2021/09/21 09:01:37;;;;;;;15.13;6.57;;;18.70;99.90;;;;;;5040302;28;20650;-74
2021/09/21 09:04:04;;;;;;;11.88;6.03;;;18.70;99.90;;;;;;5040188;28;20101;-74
2021/09/21 09:06:40;;;;;;;16.90;6.72;;;18.70;99.90;;;;;;5039647;28;20044;-74
2021/09/21 09:09:11;;;;;;;11.82;6.78;;;19.20;99.90;;;;;;5039160;28;20546;-74
2021/09/21 09:11:38;;;;;;;12.57;5.68;;;19.10;99.90;;;;;;5040377;28;20326;-73
2021/09/21 09:14:05;;;;;;;13.63;6.28;;;19.70;99.90;;;;;;5038163;28;20053;-74
2021/09/21 09:16:35;;;;;;;14.60;7.68;;;20.40;99.90;;;;;;5041849;28;20505;-74
2021/09/21 09:19:06;;;;;;;17.60;6.45;;;20.60;99.90;;;;;;5040982;28;20048;-73
2021/09/21 09:21:35;;;;;;;13.68;6.15;;;21.00;99.90;;;;;;5039431;28;20056;-73
2021/09/21 09:24:03;;;;;;;10.73;5.65;;;20.70;99.90;;;;;;5041217;28;20133;-73
2021/09/21 09:26:34;;;;;;;10.38;6.10;;;20.90;99.90;;;;;;5039690;28;20048;-73
2021/09/21 09:29:01;;;;;;;12.38;6.57;;;21.90;99.90;;;;;;5040403;28;20048;-73
2021/09/21 09:31:29;;;;;;;12.95;6.25;;;20.70;99.90;;;;;;5041081;28;20948;-73
2021/09/21 09:34:14;;;;;;;12.30;6.63;;;21.40;99.90;;;;;;5032053;28;20202;-73
2021/09/21 09:36:53;;;;;;;13.70;6.68;;;20.80;99.90;;;;;;5041419;28;20114;-73
2021/09/21 09:39:23;;;;;;;9.15;5.93;;;21.30;99.90;;;;;;5039719;28;20048;-74
2021/09/21 09:41:52;;;;;;;9.00;5.55;;;21.80;99.90;;;;;;5037710;28;20110;-73
2021/09/21 09:44:21;;;;;;;7.38;4.97;;;22.60;99.90;;;;;;5038001;28;20135;-73
2021/09/21 09:46:51;;;;;;;8.68;4.85;;;22.00;99.90;;;;;;5037452;28;20080;-73
2021/09/21 09:49:25;;;;;;;11.60;6.05;;;23.30;99.90;;;;;;5041881;28;20123;-73
2021/09/21 09:51:54;;;;;;;10.68;5.70;;;23.50;99.90;;;;;;5039948;28;20685;-73
2021/09/21 09:54:21;;;;;;;7.68;5.05;;;22.90;99.90;;;;;;5039857;28;20053;-73
2021/09/21 09:56:48;;;;;;;10.45;6.05;;;23.50;99.90;;;;;;5038260;28;20060;-74
2021/09/21 09:59:17;;;;;;;11.80;5.57;;;23.20;99.90;;;;;;5039401;28;20060;-74
2021/09/21 10:01:45;;;;;;;12.20;5.60;;;22.40;99.90;;;;;;5039964;28;20098;-74
2021/09/21 10:04:13;;;;;;;9.90;5.03;;;21.00;99.90;;;;;;5037309;28;20238;-73
2021/09/21 10:06:43;;;;;;;8.60;5.43;;;20.70;99.90;;;;;;5038630;28;20048;-74
2021/09/21 10:09:11;;;;;;;8.90;5.75;;;20.20;99.90;;;;;;5039309;28;20057;-74
2021/09/21 10:11:40;;;;;;;9.30;5.53;;;19.90;99.90;;;;;;5041449;28;20122;-74
2021/09/21 10:14:07;;;;;;;9.85;5.80;;;19.70;99.90;;;;;;5038483;28;20520;-73
2021/09/21 10:16:34;;;;;;;7.88;4.38;;;20.80;99.90;;;;;;5038897;28;20448;-74
2021/09/21 10:19:03;;;;;;;11.60;5.05;;;21.30;99.90;;;;;;5037198;28;20045;-73
2021/09/21 10:21:31;;;;;;;10.73;4.70;;;21.20;98.90;;;;;;5038899;28;20078;-74
2021/09/21 10:24:04;;;;;;;8.50;4.85;;;22.30;98.80;;;;;;5041098;28;20532;-74
2021/09/21 10:26:32;;;;;;;8.77;5.10;;;23.00;98.70;;;;;;5040812;28;20060;-73
2021/09/21 10:28:59;;;;;;;8.32;4.50;;;24.00;97.30;;;;;;5036250;28;20060;-74
2021/09/21 10:31:29;;;;;;;7.03;4.18;;;24.10;96.30;;;;;;5035837;28;20040;-74
2021/09/21 10:33:56;;;;;;;10.57;4.43;;;25.30;94.80;;;;;;5040640;28;20200;-74
2021/09/21 10:36:29;;;;;;;6.40;4.40;;;26.70;94.00;;;;;;5041220;28;20099;-74
2021/09/21 10:38:58;;;;;;;8.77;4.63;;;26.90;91.30;;;;;;5042431;28;20052;-74
2021/09/21 10:41:31;;;;;;;7.97;4.13;;;27.30;91.80;;;;;;5039074;28;20134;-74
2021/09/21 10:44:06;;;;;;;7.60;5.15;;;27.40;91.10;;;;;;5038952;28;20345;-74
2021/09/21 10:46:47;;;;;;;7.70;4.75;;;28.60;90.30;;;;;;5038768;28;20041;-74
2021/09/21 10:49:29;;;;;;;10.68;5.10;;;25.80;88.30;;;;;;5040128;28;21019;-74
2021/09/21 10:51:59;;;;;;;8.40;4.70;;;27.60;90.80;;;;;;5041088;28;20132;-74
2021/09/21 10:54:34;;;;;;;6.18;4.28;;;28.20;88.10;;;;;;5040748;28;20051;-74
2021/09/21 10:57:14;;;;;;;6.88;4.18;;;26.80;84.90;;;;;;5038242;28;20053;-74
2021/09/21 10:59:52;;;;;;;7.00;4.68;;;27.70;85.70;;;;;;5040171;28;20431;-74
2021/09/21 11:02:22;;;;;;;7.78;3.92;;;26.50;86.70;;;;;;5040313;28;20052;-74
2021/09/21 11:04:49;;;;;;;9.95;4.40;;;27.20;86.70;;;;;;5040113;28;20117;-74
2021/09/21 11:07:16;;;;;;;7.85;5.28;;;27.50;85.80;;;;;;5038881;28;20509;-74
2021/09/21 11:09:50;;;;;;;7.97;4.53;;;25.50;87.10;;;;;;5038814;28;20073;-73
2021/09/21 11:12:20;;;;;;;6.85;4.65;;;24.80;88.00;;;;;;5039150;28;20071;-74
2021/09/21 11:14:48;;;;;;;7.13;4.28;;;26.40;90.10;;;;;;5038391;28;20233;-74
2021/09/21 11:17:15;;;;;;;7.18;4.57;;;30.00;85.80;;;;;;5034174;28;20050;-74
2021/09/21 11:19:42;;;;;;;7.00;4.32;;;29.10;81.20;;;;;;5035119;28;20087;-74
2021/09/21 11:22:15;;;;;;;7.13;4.38;;;30.20;82.40;;;;;;5034996;28;20500;-74
2021/09/21 11:24:42;;;;;;;5.80;4.28;;;32.40;81.40;;;;;;5035418;28;20052;-74
2021/09/21 11:27:11;;;;;;;8.50;4.85;;;33.50;76.70;;;;;;5033248;28;20510;-74
2021/09/21 11:29:41;;;;;;;6.75;4.07;;;32.00;76.70;;;;;;5034448;28;20505;-73
2021/09/21 11:32:18;;;;;;;9.07;4.78;;;32.50;76.10;;;;;;5032857;28;20367;-74
2021/09/21 11:34:46;;;;;;;5.65;4.32;;;31.00;74.80;;;;;;5032257;28;20089;-74
2021/09/21 11:37:14;;;;;;;7.60;4.20;;;27.60;75.80;;;;;;5030182;28;20135;-74
2021/09/21 11:39:41;;;;;;;9.02;4.55;;;30.30;79.20;;;;;;5033583;28;20044;-74
2021/09/21 11:42:08;;;;;;;9.27;4.35;;;29.40;82.00;;;;;;5031490;28;20126;-74
2021/09/21 11:44:40;;;;;;;11.65;4.93;;;28.60;79.80;;;;;;5031961;28;20546;-74
2021/09/21 11:47:08;;;;;;;7.20;4.57;;;26.70;84.90;;;;;;5031796;28;20512;-74
2021/09/21 11:49:35;;;;;;;10.98;4.47;;;25.60;85.00;;;;;;5032900;28;20132;-74
2021/09/21 11:52:05;;;;;;;7.65;4.28;;;24.40;86.40;;;;;;5034611;28;20131;-74
2021/09/21 11:54:33;;;;;;;7.88;4.90;;;26.00;89.40;;;;;;5032891;28;20048;-74
2021/09/21 11:57:00;;;;;;;8.15;4.68;;;27.00;84.20;;;;;;5034884;28;20552;-74
2021/09/21 11:59:27;;;;;;;6.18;4.32;;;29.00;83.60;;;;;;5035072;28;20171;-74
2021/09/21 12:01:57;;;;;;;10.07;3.85;;;29.30;81.70;;;;;;5036670;28;20418;-74
2021/09/21 12:04:24;;;;;;;9.40;4.13;;;29.40;84.50;;;;;;5042458;28;20063;-74
2021/09/21 12:06:51;;;;;;;9.48;4.78;;;28.40;83.50;;;;;;5037684;28;20906;-74
2021/09/21 12:09:20;;;;;;;8.65;4.30;;;27.00;82.70;;;;;;5040342;28;20059;-74
2021/09/21 12:11:47;;;;;;;11.40;4.72;;;26.30;84.20;;;;;;5038478;28;20048;-74
2021/09/21 12:14:17;;;;;;;7.57;4.38;;;27.10;83.20;;;;;;5031526;28;20057;-74
2021/09/21 12:16:50;;;;;;;7.35;4.47;;;26.90;83.00;;;;;;5036436;28;20048;-74
2021/09/21 12:19:20;;;;;;;6.30;4.20;;;26.10;81.30;;;;;;5039935;28;20064;-74
2021/09/21 12:21:48;;;;;;;6.40;4.30;;;25.20;82.10;;;;;;5043930;28;20049;-74
2021/09/21 12:24:15;;;;;;;7.07;4.50;;;24.50;82.70;;;;;;5044013;28;20044;-74
2021/09/21 12:26:42;;;;;;;6.65;4.22;;;24.50;85.30;;;;;;5043127;28;20084;-74
2021/09/21 12:29:09;;;;;;;6.80;4.22;;;25.10;81.60;;;;;;5045664;28;20049;-74
2021/09/21 12:31:37;;;;;;;5.70;4.15;;;25.00;84.60;;;;;;5043848;28;20045;-74
2021/09/21 12:34:09;;;;;;;10.73;5.10;;;25.50;84.80;;;;;;5045723;28;20128;-74
2021/09/21 12:36:44;;;;;;;13.85;4.30;;;26.10;85.10;;;;;;5037709;28;20752;-74
2021/09/21 12:39:14;;;;;;;9.60;4.70;;;25.10;85.90;;;;;;5038067;28;20140;-74
2021/09/21 12:41:43;;;;;;;8.38;4.53;;;25.90;85.70;;;;;;5037902;28;20723;-74
2021/09/21 12:44:11;;;;;;;11.32;4.75;;;25.60;85.40;;;;;;5024713;28;20057;-74
2021/09/21 12:46:41;;;;;;;7.95;4.40;;;26.20;84.10;;;;;;5040810;28;20131;-74
2021/09/21 12:49:09;;;;;;;7.50;4.18;;;23.90;84.50;;;;;;5044281;28;20053;-74
2021/09/21 12:51:40;;;;;;;8.18;4.10;;;25.20;86.80;;;;;;5043814;28;20098;-74
2021/09/21 12:54:12;;;;;;;9.43;4.60;;;25.30;86.80;;;;;;5046761;28;20054;-74
2021/09/21 12:56:42;;;;;;;6.53;4.00;;;24.40;86.40;;;;;;5044643;28;20264;-74
2021/09/21 12:59:12;;;;;;;6.95;4.32;;;26.00;86.30;;;;;;5044862;28;20048;-74